Time;durP1;ratioP1;P1;durP2;ratioP2;P2;SDS_P1;SDS_P2;PMS_P1;PMS_P2;Temp;Humidity;BMP_temperature;BMP_pressure;BME280_temperature;BME280_humidity;BME280_pressure;Samples;Min_cycle;Max_cycle;Signal;HPM_P1;HPM_P2
2022/11/23 00:00:58;;;;;;;20.67;4.28;;;;;;;;;;5071802;28;20266;-65
2022/11/23 00:03:25;;;;;;;14.73;2.88;;;;;;;;;;5071999;28;20435;-65
2022/11/23 00:05:51;;;;;;;14.15;2.97;;;;;;;;;;5071472;28;20036;-65
2022/11/23 00:08:17;;;;;;;11.07;2.95;;;;;;;;;;5071621;28;20086;-65
2022/11/23 00:10:43;;;;;;;12.35;2.95;;;;;;;;;;5071136;28;20039;-65
2022/11/23 00:13:09;;;;;;;14.82;2.85;;;;;;;;;;5071742;28;20493;-65
2022/11/23 00:15:35;;;;;;;14.38;3.17;;;;;;;;;;5071547;28;20379;-65
2022/11/23 00:18:01;;;;;;;12.43;3.83;;;;;;;;;;5071164;28;20478;-65
2022/11/23 00:20:27;;;;;;;16.98;4.07;;;;;;;;;;5071580;28;20043;-65
2022/11/23 00:22:53;;;;;;;16.27;2.63;;;;;;;;;;5071123;28;20112;-64
2022/11/23 00:25:19;;;;;;;14.25;3.78;;;;;;;;;;5070933;28;20032;-65
2022/11/23 00:27:45;;;;;;;17.00;2.58;;;;;;;;;;5071408;28;20443;-65
2022/11/23 00:30:12;;;;;;;11.95;2.90;;;;;;;;;;5074436;28;20034;-65
2022/11/23 00:32:38;;;;;;;10.10;2.00;;;;;;;;;;5074066;28;20024;-65
2022/11/23 00:35:06;;;;;;;17.40;2.72;;;;;;;;;;5075110;28;20032;-65
2022/11/23 00:37:32;;;;;;;5.18;1.77;;;;;;;;;;5074906;28;20056;-64
2022/11/23 00:39:58;;;;;;;9.02;2.05;;;;;;;;;;5073521;28;20118;-65
2022/11/23 00:42:24;;;;;;;6.00;2.20;;;;;;;;;;5073855;28;20127;-64
2022/11/23 00:44:50;;;;;;;9.68;1.85;;;;;;;;;;5073490;28;20071;-64
2022/11/23 00:47:16;;;;;;;7.53;1.40;;;;;;;;;;5073732;28;20501;-65
2022/11/23 00:49:42;;;;;;;9.90;1.58;;;;;;;;;;5073715;28;20032;-65
2022/11/23 00:52:09;;;;;;;8.32;1.38;;;;;;;;;;5073052;28;20075;-65
2022/11/23 00:54:35;;;;;;;4.90;1.75;;;;;;;;;;5074744;28;20017;-65
2022/11/23 00:57:01;;;;;;;5.53;1.98;;;;;;;;;;5074500;28;20024;-65
2022/11/23 00:59:28;;;;;;;10.55;1.63;;;;;;;;;;5074943;28;20543;-65
2022/11/23 01:01:54;;;;;;;7.35;1.70;;;;;;;;;;5074503;28;20520;-64
2022/11/23 01:04:20;;;;;;;4.88;1.38;;;;;;;;;;5074774;28;20032;-64
2022/11/23 01:06:46;;;;;;;5.55;1.20;;;;;;;;;;5074397;28;20032;-65
2022/11/23 01:09:23;;;;;;;5.07;1.35;;;;;;;;;;5074642;28;20063;-65
2022/11/23 01:11:50;;;;;;;7.53;1.10;;;;;;;;;;5073190;28;20089;-64
2022/11/23 01:14:16;;;;;;;7.03;1.05;;;;;;;;;;5074348;28;20028;-64
2022/11/23 01:16:42;;;;;;;7.43;2.28;;;;;;;;;;5074493;28;20119;-65
2022/11/23 01:19:16;;;;;;;2.13;0.93;;;;;;;;;;5074484;28;20572;-64
2022/11/23 01:21:46;;;;;;;6.78;1.08;;;;;;;;;;5072860;28;20511;-64
2022/11/23 01:24:13;;;;;;;3.80;0.88;;;;;;;;;;5073762;28;20500;-65
2022/11/23 01:26:40;;;;;;;2.55;1.02;;;;;;;;;;5074256;28;20465;-65
2022/11/23 01:29:06;;;;;;;5.13;0.75;;;;;;;;;;5074049;28;20017;-64
2022/11/23 01:31:32;;;;;;;2.75;0.93;;;;;;;;;;5074485;28;20024;-65
2022/11/23 01:34:00;;;;;;;2.53;1.13;;;;;;;;;;5072309;28;20390;-65
2022/11/23 01:36:28;;;;;;;1.42;0.90;;;;;;;;;;5073493;28;20028;-65
2022/11/23 01:38:54;;;;;;;2.53;0.70;;;;;;;;;;5073861;28;20460;-65
2022/11/23 01:41:28;;;;;;;3.38;1.00;;;;;;;;;;5073472;28;20029;-64
2022/11/23 01:43:54;;;;;;;0.90;0.60;;;;;;;;;;5072580;28;20037;-65
2022/11/23 01:46:21;;;;;;;3.15;0.90;;;;;;;;;;5073653;28;20025;-65
2022/11/23 01:48:57;;;;;;;0.88;0.75;;;;;;;;;;5072746;28;20398;-65
2022/11/23 01:51:40;;;;;;;1.35;0.90;;;;;;;;;;5073313;28;20021;-65
2022/11/23 01:54:09;;;;;;;1.35;0.75;;;;;;;;;;5073563;28;20020;-65
2022/11/23 01:56:37;;;;;;;1.40;1.00;;;;;;;;;;5073623;28;20020;-64
2022/11/23 01:59:07;;;;;;;1.98;0.77;;;;;;;;;;5072390;28;20035;-65
2022/11/23 02:01:33;;;;;;;0.70;0.60;;;;;;;;;;5072399;28;20032;-65
2022/11/23 02:04:01;;;;;;;0.85;0.77;;;;;;;;;;5071759;28;20516;-65
2022/11/23 02:06:27;;;;;;;1.30;1.10;;;;;;;;;;5073314;28;20078;-65
2022/11/23 02:08:53;;;;;;;1.23;0.80;;;;;;;;;;5072157;28;20085;-59
2022/11/23 02:11:19;;;;;;;1.13;1.00;;;;;;;;;;5072098;28;20024;-58
2022/11/23 02:13:48;;;;;;;1.40;0.80;;;;;;;;;;5073076;28;20020;-59
2022/11/23 02:16:14;;;;;;;1.63;0.70;;;;;;;;;;5073132;28;20794;-59
2022/11/23 02:18:42;;;;;;;2.20;0.85;;;;;;;;;;5071910;28;20480;-58
2022/11/23 02:21:10;;;;;;;0.90;0.60;;;;;;;;;;5070747;28;20488;-59
2022/11/23 02:23:45;;;;;;;2.85;1.00;;;;;;;;;;5073118;28;20036;-59
2022/11/23 02:26:31;;;;;;;3.03;0.80;;;;;;;;;;5071574;28;20040;-59
2022/11/23 02:29:08;;;;;;;2.25;0.50;;;;;;;;;;5072469;28;20073;-59
2022/11/23 02:31:34;;;;;;;1.08;0.70;;;;;;;;;;5073063;28;20103;-59
2022/11/23 02:34:00;;;;;;;2.17;1.10;;;;;;;;;;5072568;28;20039;-59
2022/11/23 02:36:27;;;;;;;1.20;0.70;;;;;;;;;;5071626;28;20169;-59
2022/11/23 02:38:53;;;;;;;0.77;0.50;;;;;;;;;;5071595;28;20500;-59
2022/11/23 02:41:21;;;;;;;1.60;0.70;;;;;;;;;;5071418;28;20029;-59
2022/11/23 02:43:50;;;;;;;1.10;0.60;;;;;;;;;;5071706;28;20028;-58
2022/11/23 02:46:16;;;;;;;1.30;0.63;;;;;;;;;;5072448;28;20032;-59
2022/11/23 02:48:42;;;;;;;0.40;0.40;;;;;;;;;;5071052;28;20028;-59
2022/11/23 02:51:09;;;;;;;0.50;0.40;;;;;;;;;;5072389;28;20064;-59
2022/11/23 02:53:35;;;;;;;1.95;0.35;;;;;;;;;;5071955;28;20096;-59
2022/11/23 02:56:01;;;;;;;0.68;0.43;;;;;;;;;;5072513;28;20033;-59
2022/11/23 02:58:27;;;;;;;0.25;0.22;;;;;;;;;;5071027;28;20016;-59
2022/11/23 03:00:53;;;;;;;0.20;0.20;;;;;;;;;;5071415;28;20029;-59
2022/11/23 03:03:19;;;;;;;0.35;0.20;;;;;;;;;;5070908;28;20032;-59
2022/11/23 03:05:45;;;;;;;0.30;0.30;;;;;;;;;;5072444;28;20033;-58
2022/11/23 03:08:11;;;;;;;0.77;0.43;;;;;;;;;;5070957;28;20111;-59
2022/11/23 03:10:39;;;;;;;0.20;0.13;;;;;;;;;;5072496;28;20569;-59
2022/11/23 03:13:05;;;;;;;0.25;0.20;;;;;;;;;;5071068;28;20074;-59
2022/11/23 03:15:34;;;;;;;0.88;0.30;;;;;;;;;;5072454;28;20107;-59
2022/11/23 03:18:03;;;;;;;1.13;0.32;;;;;;;;;;5070642;28;20036;-59
2022/11/23 03:20:30;;;;;;;2.00;0.40;;;;;;;;;;5070977;28;20457;-59
2022/11/23 03:22:57;;;;;;;4.32;0.60;;;;;;;;;;5070904;28;20089;-59
2022/11/23 03:25:24;;;;;;;5.25;1.48;;;;;;;;;;5070621;28;20513;-59
2022/11/23 03:27:53;;;;;;;2.92;0.70;;;;;;;;;;5070783;28;20037;-59
2022/11/23 03:30:20;;;;;;;9.15;1.52;;;;;;;;;;5070827;28;20082;-59
2022/11/23 03:32:47;;;;;;;6.97;1.10;;;;;;;;;;5070626;28;20503;-58
2022/11/23 03:35:14;;;;;;;7.72;1.17;;;;;;;;;;5070647;28;20063;-59
2022/11/23 03:38:15;;;;;;;10.13;1.73;;;;;;;;;;5070925;28;20082;-59
2022/11/23 03:40:45;;;;;;;11.32;1.60;;;;;;;;;;5070585;28;20119;-59
2022/11/23 03:43:37;;;;;;;12.07;3.42;;;;;;;;;;5071982;28;20040;-59
2022/11/23 03:46:04;;;;;;;16.45;2.42;;;;;;;;;;5070377;28;20056;-59
2022/11/23 03:48:30;;;;;;;16.58;2.92;;;;;;;;;;5071487;28;20023;-59
2022/11/23 03:50:56;;;;;;;18.20;4.13;;;;;;;;;;5070470;28;20031;-59
2022/11/23 03:53:23;;;;;;;17.42;3.58;;;;;;;;;;5070486;28;20430;-59
2022/11/23 03:55:49;;;;;;;18.33;3.28;;;;;;;;;;5071698;28;20147;-59
2022/11/23 03:58:15;;;;;;;18.48;2.83;;;;;;;;;;5070606;28;20363;-59
2022/11/23 04:00:41;;;;;;;30.30;3.65;;;;;;;;;;5070217;28;20565;-59
2022/11/23 04:03:10;;;;;;;33.33;5.15;;;;;;;;;;5070649;28;20032;-59
2022/11/23 04:06:05;;;;;;;28.48;6.07;;;;;;;;;;5075068;28;20036;-59
2022/11/23 04:08:50;;;;;;;33.20;6.50;;;;;;;;;;5075877;28;20093;-59
2022/11/23 04:11:25;;;;;;;26.83;4.45;;;;;;;;;;5074271;28;20028;-59
2022/11/23 04:13:52;;;;;;;36.88;5.93;;;;;;;;;;5074389;28;20405;-59
2022/11/23 04:16:18;;;;;;;36.65;5.38;;;;;;;;;;5073649;28;20389;-59
2022/11/23 04:18:45;;;;;;;34.95;5.25;;;;;;;;;;5073724;28;20040;-59
2022/11/23 04:21:11;;;;;;;24.02;5.22;;;;;;;;;;5073635;28;20033;-59
2022/11/23 04:23:37;;;;;;;26.35;5.32;;;;;;;;;;5066762;28;20044;-58
2022/11/23 04:26:05;;;;;;;42.50;5.40;;;;;;;;;;5063484;28;20059;-59
2022/11/23 04:28:32;;;;;;;38.03;6.82;;;;;;;;;;5064081;28;20029;-59
2022/11/23 04:30:59;;;;;;;36.33;5.35;;;;;;;;;;5062666;28;20047;-59
2022/11/23 04:33:30;;;;;;;28.95;4.90;;;;;;;;;;5062559;28;20107;-59
2022/11/23 04:35:57;;;;;;;30.70;4.80;;;;;;;;;;5053352;28;20028;-59
2022/11/23 04:38:24;;;;;;;32.63;5.63;;;;;;;;;;5059933;28;20009;-59
2022/11/23 04:40:50;;;;;;;32.92;6.65;;;;;;;;;;5071765;28;20039;-59
2022/11/23 04:43:16;;;;;;;39.45;6.10;;;;;;;;;;5072274;28;20024;-59
2022/11/23 04:45:43;;;;;;;36.80;5.07;;;;;;;;;;5071899;28;20127;-59
2022/11/23 04:48:17;;;;;;;35.63;6.38;;;;;;;;;;5069370;28;20370;-59
2022/11/23 04:50:43;;;;;;;36.47;5.78;;;;;;;;;;5052940;28;20037;-59
2022/11/23 04:53:10;;;;;;;53.35;6.90;;;;;;;;;;5070430;28;20028;-59
2022/11/23 04:55:42;;;;;;;45.80;8.68;;;;;;;;;;5053983;28;20047;-59
2022/11/23 04:58:09;;;;;;;40.22;6.78;;;;;;;;;;5073451;28;20492;-58
2022/11/23 05:00:36;;;;;;;40.78;7.00;;;;;;;;;;5074175;28;20592;-59
2022/11/23 05:03:04;;;;;;;28.88;6.07;;;;;;;;;;5073618;28;20035;-59
2022/11/23 05:05:37;;;;;;;34.08;7.03;;;;;;;;;;5073328;28;20039;-59
2022/11/23 05:08:03;;;;;;;30.08;4.88;;;;;;;;;;5074729;28;20029;-59
2022/11/23 05:10:50;;;;;;;41.22;6.15;;;;;;;;;;5074310;28;20036;-59
2022/11/23 05:13:16;;;;;;;33.40;5.72;;;;;;;;;;5072545;28;20075;-59
2022/11/23 05:15:43;;;;;;;22.90;4.45;;;;;;;;;;5072388;28;20029;-59
2022/11/23 05:18:12;;;;;;;26.95;4.45;;;;;;;;;;5073317;28;20040;-59
2022/11/23 05:20:39;;;;;;;30.80;5.60;;;;;;;;;;5072962;28;20056;-59
2022/11/23 05:23:05;;;;;;;22.48;4.50;;;;;;;;;;5073887;28;20029;-59
2022/11/23 05:25:33;;;;;;;20.65;3.50;;;;;;;;;;5072752;28;20082;-59
2022/11/23 05:28:04;;;;;;;19.55;4.28;;;;;;;;;;5072867;28;20025;-59
2022/11/23 05:30:30;;;;;;;16.75;3.42;;;;;;;;;;5072565;28;20032;-59
2022/11/23 05:33:00;;;;;;;25.00;4.40;;;;;;;;;;5072888;28;20568;-59
2022/11/23 05:35:28;;;;;;;13.57;3.05;;;;;;;;;;5072733;28;20032;-59
2022/11/23 05:37:55;;;;;;;29.23;5.10;;;;;;;;;;5072624;28;20032;-59
2022/11/23 05:40:21;;;;;;;26.10;3.65;;;;;;;;;;5074123;28;20107;-59
2022/11/23 05:42:54;;;;;;;13.85;2.97;;;;;;;;;;5072190;28;20032;-59
2022/11/23 05:45:21;;;;;;;19.67;3.70;;;;;;;;;;5072461;28;20170;-59
2022/11/23 05:47:51;;;;;;;26.20;4.75;;;;;;;;;;5056516;28;20029;-59
2022/11/23 05:50:23;;;;;;;;;;;;;;;;;;5073161;28;20032;-59
2022/11/23 05:53:10;;;;;;;22.13;5.00;;;;;;;;;;5071081;28;19974;-59
2022/11/23 05:55:36;;;;;;;35.75;5.43;;;;;;;;;;5067339;28;20363;-59
2022/11/23 05:58:02;;;;;;;33.13;4.75;;;;;;;;;;5057487;28;20040;-59
2022/11/23 06:00:29;;;;;;;30.40;5.57;;;;;;;;;;5067798;28;20043;-59
2022/11/23 06:03:01;;;;;;;39.28;6.80;;;;;;;;;;5072910;28;20032;-59
2022/11/23 06:05:30;;;;;;;39.20;5.53;;;;;;;;;;5072044;28;20051;-59
2022/11/23 06:07:57;;;;;;;33.55;7.63;;;;;;;;;;5072480;28;20027;-59
2022/11/23 06:10:26;;;;;;;38.72;5.07;;;;;;;;;;5068509;28;20025;-59
2022/11/23 07:05:47;;;;;;;26.50;4.10;;;;;;;;;;5773169;22;1344806;-59
2022/11/23 07:08:14;;;;;;;21.08;3.53;;;;;;;;;;6252224;23;20015;-59
2022/11/23 07:10:40;;;;;;;27.33;4.38;;;;;;;;;;6251349;23;20011;-59
2022/11/23 07:13:09;;;;;;;33.95;6.15;;;;;;;;;;6251863;23;20083;-59
2022/11/23 07:15:36;;;;;;;25.52;4.75;;;;;;;;;;6251853;23;20008;-59
2022/11/23 07:18:03;;;;;;;33.25;4.82;;;;;;;;;;6252018;23;20000;-59
2022/11/23 07:20:30;;;;;;;32.80;4.47;;;;;;;;;;6251373;23;20073;-59
2022/11/23 07:23:04;;;;;;;30.00;5.32;;;;;;;;;;6252375;23;20000;-59
2022/11/23 07:25:32;;;;;;;22.45;4.57;;;;;;;;;;6250062;22;20106;-59
2022/11/23 07:28:00;;;;;;;27.92;4.30;;;;;;;;;;6250698;23;20095;-59
2022/11/23 07:30:27;;;;;;;33.88;6.20;;;;;;;;;;6252282;22;20091;-59
2022/11/23 07:32:53;;;;;;;23.55;4.47;;;;;;;;;;6243664;23;20372;-59
2022/11/23 07:35:20;;;;;;;40.55;5.70;;;;;;;;;;6245290;23;20085;-59
2022/11/23 07:37:47;;;;;;;25.25;4.55;;;;;;;;;;6243585;23;20000;-59
2022/11/23 07:40:13;;;;;;;28.77;4.40;;;;;;;;;;6244428;23;20008;-59
2022/11/23 07:42:40;;;;;;;32.63;6.18;;;;;;;;;;6244049;23;20008;-59
2022/11/23 07:45:06;;;;;;;33.78;4.70;;;;;;;;;;6246409;23;20005;-59
2022/11/23 07:47:35;;;;;;;37.30;5.75;;;;;;;;;;6243772;23;20075;-59
2022/11/23 07:50:01;;;;;;;26.17;6.43;;;;;;;;;;6245083;23;20449;-59
2022/11/23 07:52:27;;;;;;;30.70;5.07;;;;;;;;;;6245169;23;20044;-59
2022/11/23 07:54:53;;;;;;;38.15;5.85;;;;;;;;;;6245117;23;20089;-59
2022/11/23 07:57:19;;;;;;;32.20;6.38;;;;;;;;;;6243028;23;20009;-59
2022/11/23 07:59:45;;;;;;;29.42;6.35;;;;;;;;;;6243782;23;20087;-59
2022/11/23 08:02:15;;;;;;;27.30;5.82;;;;;;;;;;6244553;23;20046;-59
2022/11/23 08:04:41;;;;;;;22.85;5.40;;;;;;;;;;6243673;23;20019;-59
2022/11/23 08:07:07;;;;;;;27.70;5.13;;;;;;;;;;6243974;23;20079;-59
2022/11/23 08:09:33;;;;;;;30.63;5.78;;;;;;;;;;6242459;23;20057;-59
2022/11/23 08:11:59;;;;;;;42.33;7.03;;;;;;;;;;6244132;23;20442;-59
2022/11/23 08:14:25;;;;;;;36.72;6.25;;;;;;;;;;6244312;23;20008;-59
2022/11/23 08:16:51;;;;;;;42.38;7.75;;;;;;;;;;6243853;23;20007;-59
2022/11/23 08:19:18;;;;;;;40.75;6.82;;;;;;;;;;6243365;23;20035;-59
2022/11/23 08:21:44;;;;;;;40.13;6.50;;;;;;;;;;6243704;23;20043;-59
2022/11/23 08:24:11;;;;;;;39.65;6.30;;;;;;;;;;6243856;23;20015;-59
2022/11/23 08:26:37;;;;;;;34.28;6.05;;;;;;;;;;6243740;23;20067;-59
2022/11/23 08:29:03;;;;;;;26.75;5.82;;;;;;;;;;6244407;23;20046;-59
2022/11/23 08:31:29;;;;;;;27.58;5.43;;;;;;;;;;6243929;23;20400;-59
2022/11/23 08:33:56;;;;;;;31.88;6.72;;;;;;;;;;6244125;23;20713;-59
2022/11/23 08:36:22;;;;;;;41.25;6.65;;;;;;;;;;6245129;23;20011;-59
2022/11/23 08:38:50;;;;;;;35.72;6.47;;;;;;;;;;6244879;22;20004;-59
2022/11/23 08:41:19;;;;;;;34.47;6.18;;;;;;;;;;6244688;22;20008;-60
2022/11/23 08:43:49;;;;;;;36.50;6.97;;;;;;;;;;6245147;23;20337;-60
2022/11/23 08:46:15;;;;;;;35.55;6.15;;;;;;;;;;6244775;23;20000;-60
2022/11/23 08:48:41;;;;;;;37.25;5.68;;;;;;;;;;6245049;23;20001;-60
2022/11/23 08:51:07;;;;;;;33.30;5.05;;;;;;;;;;6244720;22;20004;-60
2022/11/23 08:53:33;;;;;;;36.05;7.68;;;;;;;;;;6244945;23;20134;-60
2022/11/23 08:56:00;;;;;;;38.97;5.80;;;;;;;;;;6244784;23;20005;-60
2022/11/23 08:58:26;;;;;;;30.58;5.30;;;;;;;;;;6245298;22;20445;-60
2022/11/23 09:00:52;;;;;;;29.65;4.85;;;;;;;;;;6244219;23;20071;-60
2022/11/23 09:03:19;;;;;;;28.60;6.47;;;;;;;;;;6244723;23;20472;-60
2022/11/23 09:18:26;;;;;;;33.88;5.30;;;;;;;;;;6244920;23;20316;-60
2022/11/23 09:20:52;;;;;;;42.78;5.97;;;;;;;;;;6243693;23;20008;-60
2022/11/23 09:23:18;;;;;;;27.48;4.65;;;;;;;;;;6243007;23;20334;-60
2022/11/23 09:25:48;;;;;;;35.13;5.53;;;;;;;;;;6244043;23;20027;-60
2022/11/23 09:28:16;;;;;;;28.75;4.45;;;;;;;;;;6244223;22;20031;-60
2022/11/23 09:30:42;;;;;;;23.67;5.18;;;;;;;;;;6242707;22;20008;-60
2022/11/23 09:33:08;;;;;;;36.40;5.20;;;;;;;;;;6243985;23;20079;-60
2022/11/23 09:35:34;;;;;;;25.75;5.10;;;;;;;;;;6243541;23;20027;-60
2022/11/23 09:38:01;;;;;;;36.40;5.78;;;;;;;;;;6243748;23;20008;-60
2022/11/23 09:40:29;;;;;;;21.77;4.22;;;;;;;;;;6243497;23;20006;-60
2022/11/23 09:43:14;;;;;;;32.42;4.72;;;;;;;;;;6243591;23;20008;-60
2022/11/23 09:45:48;;;;;;;29.23;6.82;;;;;;;;;;6243370;23;20079;-60
2022/11/23 09:48:22;;;;;;;27.77;4.75;;;;;;;;;;6243075;23;20005;-60
2022/11/23 09:50:51;;;;;;;24.65;4.97;;;;;;;;;;6243553;23;20019;-60
2022/11/23 09:53:21;;;;;;;22.38;4.07;;;;;;;;;;6243297;22;20051;-60
2022/11/23 09:55:48;;;;;;;19.70;4.70;;;;;;;;;;6243806;23;20008;-60
2022/11/23 09:58:19;;;;;;;25.40;4.55;;;;;;;;;;6242955;23;20050;-60
2022/11/23 10:00:52;;;;;;;30.23;4.72;;;;;;;;;;6243655;23;20034;-60
2022/11/23 10:03:18;;;;;;;20.25;3.90;;;;;;;;;;6242526;23;20008;-60
2022/11/23 10:05:54;;;;;;;38.15;6.07;;;;;;;;;;6242720;23;20361;-60
2022/11/23 10:08:36;;;;;;;23.17;4.95;;;;;;;;;;6242687;23;20008;-60
2022/11/23 10:11:02;;;;;;;31.55;5.55;;;;;;;;;;6243999;22;20004;-61
2022/11/23 10:13:37;;;;;;;29.33;5.35;;;;;;;;;;6243217;23;20050;-61
2022/11/23 10:16:15;;;;;;;22.88;4.43;;;;;;;;;;6243483;23;20065;-61
2022/11/23 10:18:50;;;;;;;26.20;4.75;;;;;;;;;;6243598;23;20011;-61
2022/11/23 10:21:22;;;;;;;24.40;4.95;;;;;;;;;;6243665;23;20442;-61
2022/11/23 10:23:55;;;;;;;32.70;6.15;;;;;;;;;;6243234;22;20000;-61
2022/11/23 10:26:28;;;;;;;23.73;5.68;;;;;;;;;;6242910;23;20535;-61
2022/11/23 10:28:54;;;;;;;28.27;5.55;;;;;;;;;;6243361;23;20000;-61
2022/11/23 10:31:26;;;;;;;30.17;5.40;;;;;;;;;;6243223;23;20016;-61
2022/11/23 10:34:02;;;;;;;30.38;5.75;;;;;;;;;;6243623;23;20035;-61
2022/11/23 10:36:28;;;;;;;33.10;5.75;;;;;;;;;;6242896;23;20008;-61
2022/11/23 10:38:56;;;;;;;25.58;5.30;;;;;;;;;;6244024;23;20000;-61
2022/11/23 10:41:22;;;;;;;26.48;5.70;;;;;;;;;;6243161;23;20444;-61
2022/11/23 10:43:49;;;;;;;29.77;5.30;;;;;;;;;;6241764;23;20000;-61
2022/11/23 10:46:23;;;;;;;27.08;5.53;;;;;;;;;;6242989;23;20032;-61
2022/11/23 10:48:51;;;;;;;28.08;6.00;;;;;;;;;;6243315;23;20015;-61
2022/11/23 10:51:22;;;;;;;28.25;5.28;;;;;;;;;;6243146;23;20004;-61
2022/11/23 10:53:56;;;;;;;24.05;4.68;;;;;;;;;;6243477;23;20008;-61
2022/11/23 10:56:22;;;;;;;26.15;5.68;;;;;;;;;;6242922;23;20016;-61
2022/11/23 10:58:48;;;;;;;31.88;5.43;;;;;;;;;;6243310;23;20050;-61
2022/11/23 11:01:16;;;;;;;31.10;4.90;;;;;;;;;;6243227;22;20498;-61
2022/11/23 11:03:42;;;;;;;31.42;6.15;;;;;;;;;;6242756;23;20007;-61
2022/11/23 11:06:08;;;;;;;32.85;4.70;;;;;;;;;;6242504;23;20012;-61
2022/11/23 11:08:36;;;;;;;27.15;5.40;;;;;;;;;;6245009;23;20008;-61
2022/11/23 11:11:06;;;;;;;27.77;5.13;;;;;;;;;;6244999;23;20050;-61
2022/11/23 11:13:40;;;;;;;27.75;5.80;;;;;;;;;;6245177;23;20008;-61
2022/11/23 11:16:17;;;;;;;30.40;5.35;;;;;;;;;;6245293;22;20012;-61
2022/11/23 11:18:43;;;;;;;32.55;5.95;;;;;;;;;;6245182;23;20012;-61
2022/11/23 11:21:18;;;;;;;27.77;5.13;;;;;;;;;;6243446;23;20008;-61
2022/11/23 11:23:50;;;;;;;27.60;4.90;;;;;;;;;;6243904;23;20012;-61
2022/11/23 11:26:21;;;;;;;26.50;5.72;;;;;;;;;;6243884;23;20007;-61
2022/11/23 11:29:08;;;;;;;35.25;5.15;;;;;;;;;;6244316;23;20057;-61
2022/11/23 11:31:52;;;;;;;34.58;5.90;;;;;;;;;;6245022;22;20154;-61
2022/11/23 11:34:21;;;;;;;34.03;5.20;;;;;;;;;;6245047;23;20449;-61
2022/11/23 11:36:50;;;;;;;41.22;5.40;;;;;;;;;;6244130;22;20008;-60
2022/11/23 11:39:26;;;;;;;24.45;4.72;;;;;;;;;;6244638;23;20019;-61
2022/11/23 11:41:54;;;;;;;34.70;5.82;;;;;;;;;;6244499;23;20532;-61
2022/11/23 11:44:22;;;;;;;26.20;5.13;;;;;;;;;;6244755;23;20012;-61
2022/11/23 11:46:54;;;;;;;34.33;6.88;;;;;;;;;;6243540;23;20012;-60
2022/11/23 11:49:26;;;;;;;35.47;6.20;;;;;;;;;;6244179;22;20476;-61
2022/11/23 11:52:02;;;;;;;28.43;5.43;;;;;;;;;;6243625;23;20369;-60
2022/11/23 11:54:28;;;;;;;31.33;5.93;;;;;;;;;;6243340;22;20053;-61
2022/11/23 11:56:57;;;;;;;28.02;6.13;;;;;;;;;;6243646;23;20000;-61
2022/11/23 11:59:28;;;;;;;26.45;5.10;;;;;;;;;;6243102;23;20012;-61
2022/11/23 12:01:56;;;;;;;32.67;5.88;;;;;;;;;;6244562;23;20028;-60
2022/11/23 12:04:31;;;;;;;31.85;5.35;;;;;;;;;;6244643;23;20004;-60
2022/11/23 12:07:09;;;;;;;28.83;5.35;;;;;;;;;;6242634;23;20654;-61
2022/11/23 12:09:38;;;;;;;36.60;6.20;;;;;;;;;;6243708;23;20043;-60
2022/11/23 12:12:05;;;;;;;29.02;4.93;;;;;;;;;;6243521;23;20035;-61
2022/11/23 12:14:31;;;;;;;22.98;4.40;;;;;;;;;;6244043;23;20076;-61
2022/11/23 12:16:57;;;;;;;38.00;8.68;;;;;;;;;;6243455;23;20618;-61
2022/11/23 12:19:26;;;;;;;31.65;6.75;;;;;;;;;;6244960;23;20000;-61
2022/11/23 12:22:11;;;;;;;27.25;5.95;;;;;;;;;;6244156;23;20000;-61
2022/11/23 12:24:56;;;;;;;40.85;6.57;;;;;;;;;;6243869;23;20000;-61
2022/11/23 12:27:28;;;;;;;29.10;5.60;;;;;;;;;;6244229;23;20008;-61
2022/11/23 12:30:01;;;;;;;36.10;5.63;;;;;;;;;;6243811;23;20350;-61
2022/11/23 12:32:30;;;;;;;30.77;5.22;;;;;;;;;;6243488;23;20004;-61
2022/11/23 12:34:56;;;;;;;25.40;5.13;;;;;;;;;;6242920;23;20004;-61
2022/11/23 12:37:31;;;;;;;23.80;4.38;;;;;;;;;;6242674;23;20453;-61
2022/11/23 12:40:13;;;;;;;24.85;4.70;;;;;;;;;;6242837;23;20012;-61
2022/11/23 12:42:44;;;;;;;25.45;5.43;;;;;;;;;;6243747;23;20000;-60
2022/11/23 12:45:13;;;;;;;30.00;5.88;;;;;;;;;;6242276;23;20345;-61
2022/11/23 12:47:39;;;;;;;29.40;5.93;;;;;;;;;;6244007;23;20087;-61
2022/11/23 12:50:05;;;;;;;28.13;6.15;;;;;;;;;;6243939;23;20008;-61
2022/11/23 12:53:07;;;;;;;37.17;5.90;;;;;;;;;;6243021;23;20423;-61
2022/11/23 12:55:40;;;;;;;28.77;5.25;;;;;;;;;;6120417;23;20112;-61
2022/11/23 12:58:06;;;;;;;;;;;;;;;;;;6120502;23;20754;-61
2022/11/23 13:00:43;;;;;;;29.48;5.30;;;;;;;;;;6119956;23;19909;-61
2022/11/23 13:03:28;;;;;;;22.65;5.43;;;;;;;;;;6120303;23;20061;-61
2022/11/23 13:06:26;;;;;;;29.35;6.05;;;;;;;;;;6119910;23;20018;-61
2022/11/23 13:09:11;;;;;;;33.38;6.72;;;;;;;;;;6072731;23;20138;-61
2022/11/23 13:11:37;;;;;;;29.70;6.00;;;;;;;;;;6119970;23;20468;-61
2022/11/23 13:14:19;;;;;;;27.02;5.22;;;;;;;;;;6120044;23;20021;-61
2022/11/23 13:16:53;;;;;;;33.92;5.75;;;;;;;;;;6119970;23;20020;-61
2022/11/23 13:19:25;;;;;;;33.55;6.15;;;;;;;;;;6120074;23;20010;-61
2022/11/23 13:21:51;;;;;;;31.65;7.03;;;;;;;;;;6119749;23;20037;-61
2022/11/23 13:24:29;;;;;;;34.72;5.70;;;;;;;;;;6096660;23;20009;-61
2022/11/23 13:27:13;;;;;;;34.03;7.38;;;;;;;;;;6121028;23;20010;-61
2022/11/23 13:29:45;;;;;;;42.05;5.95;;;;;;;;;;6188006;23;20016;-61
2022/11/23 13:32:30;;;;;;;23.75;4.95;;;;;;;;;;6243411;23;20035;-61
2022/11/23 13:34:56;;;;;;;38.70;6.53;;;;;;;;;;6242130;23;20061;-61
2022/11/23 13:37:23;;;;;;;34.40;6.03;;;;;;;;;;6242978;23;20012;-61
2022/11/23 13:39:56;;;;;;;39.40;6.10;;;;;;;;;;6243327;22;20624;-61
2022/11/23 13:42:23;;;;;;;33.60;6.13;;;;;;;;;;6243435;23;20012;-61
2022/11/23 13:45:09;;;;;;;35.05;6.75;;;;;;;;;;6242614;23;20011;-61
2022/11/23 13:47:35;;;;;;;28.83;6.85;;;;;;;;;;6242755;23;20074;-61
2022/11/23 13:50:09;;;;;;;28.02;7.30;;;;;;;;;;6242473;23;20008;-61
2022/11/23 13:52:35;;;;;;;32.10;5.70;;;;;;;;;;6242570;22;20038;-61
2022/11/23 13:55:04;;;;;;;34.78;5.80;;;;;;;;;;6243684;22;20011;-61
2022/11/23 13:57:30;;;;;;;29.60;6.90;;;;;;;;;;6243535;23;20488;-61
2022/11/23 14:00:15;;;;;;;35.63;5.90;;;;;;;;;;6242581;23;20008;-61
2022/11/23 14:02:41;;;;;;;28.08;5.85;;;;;;;;;;6242896;23;20004;-61
2022/11/23 14:05:26;;;;;;;36.72;6.30;;;;;;;;;;6242604;23;20015;-61
2022/11/23 14:07:52;;;;;;;31.65;5.28;;;;;;;;;;6242924;23;20005;-61
2022/11/23 14:10:22;;;;;;;34.58;6.28;;;;;;;;;;6243218;23;20346;-61
2022/11/23 14:12:48;;;;;;;35.97;6.43;;;;;;;;;;6242651;23;20154;-61
2022/11/23 14:15:14;;;;;;;46.15;7.47;;;;;;;;;;6242966;23;20086;-61
2022/11/23 14:17:58;;;;;;;31.20;6.22;;;;;;;;;;6243197;23;20039;-60
2022/11/23 14:20:38;;;;;;;38.92;5.75;;;;;;;;;;6242356;23;20012;-61
2022/11/23 14:23:25;;;;;;;31.77;5.35;;;;;;;;;;6242999;23;20461;-61
2022/11/23 14:26:03;;;;;;;36.60;5.82;;;;;;;;;;6120169;23;20029;-61
2022/11/23 14:28:38;;;;;;;31.17;5.38;;;;;;;;;;6120050;23;20033;-61
2022/11/23 14:31:07;;;;;;;26.58;4.40;;;;;;;;;;6119492;23;20021;-61
2022/11/23 14:33:42;;;;;;;33.65;6.00;;;;;;;;;;6119404;23;20042;-61
2022/11/23 14:36:18;;;;;;;35.83;4.85;;;;;;;;;;6119114;23;20097;-61
2022/11/23 14:38:50;;;;;;;22.40;4.97;;;;;;;;;;6118898;23;20016;-61
2022/11/23 14:41:21;;;;;;;36.25;5.72;;;;;;;;;;6120630;23;20021;-61
2022/11/23 14:43:48;;;;;;;29.63;6.00;;;;;;;;;;6123028;23;20010;-61
2022/11/23 14:46:18;;;;;;;38.55;6.40;;;;;;;;;;6122186;23;20448;-61
2022/11/23 14:48:45;;;;;;;34.25;6.30;;;;;;;;;;6121903;23;20029;-61
2022/11/23 14:51:13;;;;;;;44.45;5.78;;;;;;;;;;6121929;23;20447;-61
2022/11/23 14:53:40;;;;;;;29.02;6.90;;;;;;;;;;6122428;23;20065;-60
2022/11/23 14:56:16;;;;;;;30.30;6.90;;;;;;;;;;6122230;23;20084;-61
2022/11/23 14:58:42;;;;;;;33.53;6.65;;;;;;;;;;6120950;23;20022;-61
2022/11/23 15:01:13;;;;;;;27.00;5.97;;;;;;;;;;6120699;23;20380;-61
2022/11/23 15:03:39;;;;;;;38.78;7.68;;;;;;;;;;6217890;23;20004;-61
2022/11/23 15:06:12;;;;;;;43.53;6.28;;;;;;;;;;6243091;23;20027;-61
2022/11/23 15:08:41;;;;;;;26.38;6.53;;;;;;;;;;6243481;23;20062;-61
2022/11/23 15:11:14;;;;;;;28.02;5.45;;;;;;;;;;6242575;23;20004;-61
2022/11/23 15:13:47;;;;;;;25.95;5.10;;;;;;;;;;6243679;23;20012;-61
2022/11/23 15:16:14;;;;;;;23.08;3.75;;;;;;;;;;6243936;23;20008;-61
2022/11/23 15:18:41;;;;;;;29.02;5.60;;;;;;;;;;6244263;23;20007;-60
2022/11/23 15:21:17;;;;;;;28.27;4.93;;;;;;;;;;6242802;23;20008;-61
2022/11/23 15:23:48;;;;;;;26.65;4.65;;;;;;;;;;6244589;22;20723;-60
2022/11/23 15:26:19;;;;;;;21.38;4.93;;;;;;;;;;6244641;22;20311;-60
2022/11/23 15:28:45;;;;;;;20.77;4.80;;;;;;;;;;6244296;23;20005;-60
2022/11/23 15:31:31;;;;;;;28.48;4.20;;;;;;;;;;6244497;23;20011;-61
2022/11/23 15:33:58;;;;;;;30.65;6.85;;;;;;;;;;6243956;23;20501;-61
2022/11/23 15:36:28;;;;;;;31.08;5.28;;;;;;;;;;6244750;23;20670;-61
2022/11/23 15:38:54;;;;;;;23.15;4.28;;;;;;;;;;6243959;23;20015;-60
2022/11/23 15:41:21;;;;;;;20.10;4.60;;;;;;;;;;6243423;22;20012;-61
2022/11/23 15:43:54;;;;;;;18.55;4.50;;;;;;;;;;6243857;23;20012;-61
2022/11/23 15:46:24;;;;;;;25.95;3.97;;;;;;;;;;6243743;23;20019;-61
2022/11/23 15:48:52;;;;;;;18.40;4.10;;;;;;;;;;6244695;22;20004;-61
2022/11/23 15:51:22;;;;;;;28.38;6.03;;;;;;;;;;6244279;22;20508;-61
2022/11/23 15:53:50;;;;;;;25.02;4.18;;;;;;;;;;6244070;23;20342;-60